createdAt,value
2022-09-23T00:15:36.737Z,98597.63
2022-09-23T01:36:42.175Z,98560.78
2022-09-23T01:56:45.066Z,98560.31
2022-09-23T03:17:54.167Z,98564.38
2022-09-23T03:58:12.973Z,98557.50
2022-09-23T04:18:16.163Z,98551.47
2022-09-23T04:38:18.647Z,98553.03
2022-09-23T04:58:21.710Z,98549.91
2022-09-23T05:18:24.527Z,98558.69
2022-09-23T05:38:27.106Z,98568.69
2022-09-23T05:58:30.042Z,98582.84
2022-09-23T06:18:32.832Z,98583.75
2022-09-23T06:38:35.751Z,98572.69
2022-09-23T06:58:39.192Z,98570.06
2022-09-23T07:18:42.282Z,98577.81
2022-09-23T07:38:45.935Z,98587.91
2022-09-23T07:59:00.994Z,98591.56
2022-09-23T08:39:06.261Z,98594.75
2022-09-23T08:59:11.866Z,98574.94
2022-09-23T09:19:14.569Z,98575.19
2022-09-23T09:39:16.956Z,98562.22
2022-09-23T09:59:22.206Z,98554.19
2022-09-23T10:19:24.933Z,98524.19
2022-09-23T10:39:46.476Z,98507.41
2022-09-23T10:59:49.979Z,98491.84
2022-09-23T11:19:52.447Z,98487.88
2022-09-23T11:39:54.865Z,98469.41
2022-09-23T11:59:57.329Z,98454.13
2022-09-23T12:19:59.742Z,98452.78
2022-09-23T12:40:02.252Z,98425.91
2022-09-23T13:00:04.993Z,98402.00
2022-09-23T13:20:07.548Z,98376.84
2022-09-23T13:40:10.478Z,98359.59
2022-09-23T14:00:13.310Z,98352.94
2022-09-23T14:20:15.989Z,98330.97
2022-09-23T14:40:18.544Z,98319.91
2022-09-23T15:00:21.568Z,98302.69
2022-09-23T15:20:24.238Z,98287.44
2022-09-23T15:40:26.882Z,98294.75
2022-09-23T16:00:29.587Z,98280.97
2022-09-23T16:20:32.297Z,98273.50
2022-09-23T16:40:35.085Z,98287.06
2022-09-23T17:00:56.797Z,98284.94
2022-09-23T17:20:59.621Z,98276.28
2022-09-23T17:41:03.237Z,98278.66
2022-09-23T18:01:05.795Z,98281.84
2022-09-23T18:21:08.878Z,98295.41
2022-09-23T18:41:12.719Z,98297.75
2022-09-23T19:01:15.254Z,98289.69
2022-09-23T19:21:18.197Z,98300.13
2022-09-23T19:41:21.276Z,98297.94
2022-09-23T20:01:23.810Z,98292.03
2022-09-23T20:21:26.249Z,98285.25
2022-09-23T20:41:29.636Z,98286.87
2022-09-23T21:01:32.494Z,98275.62
2022-09-23T21:21:34.916Z,98278.91
2022-09-23T21:41:37.691Z,98276.47
2022-09-23T22:01:40.311Z,98288.16
2022-09-23T22:21:42.895Z,98274.38
2022-09-23T22:41:45.539Z,98277.53
2022-09-23T23:01:48.208Z,98282.06
2022-09-23T23:21:50.770Z,98262.50
2022-09-23T23:41:53.348Z,98265.03
